createdAt,value
2022-08-07T00:00:31.201Z,0.23
2022-08-07T00:02:57.915Z,0.20
2022-08-07T00:05:26.225Z,0.30
2022-08-07T00:07:59.537Z,0.30
2022-08-07T00:10:30.030Z,0.30
2022-08-07T00:13:09.730Z,0.23
2022-08-07T00:15:51.035Z,0.30
2022-08-07T00:18:24.585Z,0.30
2022-08-07T00:20:57.392Z,0.33
2022-08-07T00:23:30.190Z,0.30
2022-08-07T00:26:00.198Z,0.30
2022-08-07T00:28:33.173Z,0.20
2022-08-07T00:31:06.303Z,0.20
2022-08-07T00:33:40.582Z,0.20
2022-08-07T00:36:08.425Z,0.40
2022-08-07T00:38:36.813Z,0.20
2022-08-07T00:41:09.966Z,0.20
2022-08-07T00:44:01.309Z,0.30
2022-08-07T00:46:29.209Z,0.30
2022-08-07T00:49:02.170Z,0.43
2022-08-07T00:51:57.603Z,0.40
2022-08-07T00:54:19.955Z,0.20
2022-08-07T00:56:49.789Z,0.30
2022-08-07T00:59:18.087Z,0.30
2022-08-07T01:01:48.635Z,0.23
2022-08-07T01:04:24.690Z,0.30
2022-08-07T01:06:52.121Z,0.30
2022-08-07T01:10:03.932Z,0.20
2022-08-07T01:12:28.768Z,0.20
2022-08-07T01:15:01.468Z,0.43
2022-08-07T01:17:31.122Z,0.30
2022-08-07T01:20:04.217Z,0.43
2022-08-07T01:22:31.409Z,0.30
2022-08-07T01:24:59.840Z,0.20
2022-08-07T01:27:32.041Z,0.20
2022-08-07T01:29:59.897Z,0.40
2022-08-07T01:32:27.534Z,0.50
2022-08-07T01:34:56.106Z,0.30
2022-08-07T01:37:24.541Z,0.20
2022-08-07T01:39:52.154Z,0.30
2022-08-07T01:42:37.628Z,0.30
2022-08-07T01:45:10.018Z,0.13
2022-08-07T01:48:18.401Z,0.20
2022-08-07T01:50:32.650Z,0.30
2022-08-07T01:53:01.375Z,0.30
2022-08-07T01:55:44.300Z,0.30
2022-08-07T01:58:29.287Z,0.27
2022-08-07T02:01:09.872Z,0.20
2022-08-07T02:04:01.133Z,0.30
2022-08-07T02:06:31.905Z,0.27
2022-08-07T02:09:04.381Z,0.30
2022-08-07T02:12:04.139Z,0.30
2022-08-07T02:14:36.117Z,0.40
2022-08-07T02:17:07.998Z,0.30
2022-08-07T02:20:05.177Z,0.27
2022-08-07T02:22:30.917Z,0.30
2022-08-07T02:24:59.520Z,0.30
2022-08-07T02:27:34.595Z,0.30
2022-08-07T02:30:04.001Z,0.30
2022-08-07T02:32:39.422Z,0.20
2022-08-07T02:36:30.865Z,0.40
2022-08-07T02:38:16.056Z,0.50
2022-08-07T02:40:46.463Z,0.30
2022-08-07T02:43:16.100Z,0.30
2022-08-07T02:46:00.659Z,0.33
2022-08-07T02:48:30.323Z,0.30
2022-08-07T02:51:01.602Z,0.30
2022-08-07T02:53:39.016Z,0.30
2022-08-07T02:56:17.622Z,0.30
2022-08-07T02:58:51.539Z,0.40
2022-08-07T03:01:35.961Z,0.30
2022-08-07T03:04:12.626Z,0.30
2022-08-07T03:06:45.742Z,0.30
2022-08-07T03:09:13.867Z,0.40
2022-08-07T03:11:52.218Z,0.40
2022-08-07T03:14:26.110Z,0.40
2022-08-07T03:16:55.296Z,0.40
2022-08-07T03:19:22.834Z,0.60
2022-08-07T03:21:51.273Z,0.30
2022-08-07T03:24:27.421Z,0.40
2022-08-07T03:26:59.632Z,0.33
2022-08-07T03:29:46.125Z,0.43
2022-08-07T03:32:19.224Z,0.70
2022-08-07T03:35:00.900Z,0.40
2022-08-07T03:37:46.015Z,0.67
2022-08-07T03:40:20.381Z,0.40
2022-08-07T03:42:50.323Z,0.30
2022-08-07T03:45:30.359Z,0.40
2022-08-07T03:47:59.741Z,0.50
2022-08-07T03:50:28.558Z,0.33
2022-08-07T03:52:59.198Z,0.70
2022-08-07T03:55:53.372Z,0.33
2022-08-07T03:58:32.612Z,0.30
2022-08-07T04:01:03.658Z,0.40
2022-08-07T04:03:49.602Z,0.53
2022-08-07T04:06:37.740Z,0.50
2022-08-07T04:09:06.544Z,0.57
2022-08-07T04:12:25.181Z,0.20
2022-08-07T04:14:38.170Z,0.50
2022-08-07T04:17:19.868Z,0.60
2022-08-07T04:19:57.604Z,0.37
2022-08-07T04:22:28.941Z,0.60
2022-08-07T04:24:58.362Z,0.70
2022-08-07T04:27:26.420Z,0.60
2022-08-07T04:30:01.507Z,0.50
2022-08-07T04:32:34.708Z,0.53
2022-08-07T04:35:03.879Z,0.70
2022-08-07T04:37:40.383Z,0.70
2022-08-07T04:40:20.787Z,0.80
2022-08-07T04:42:52.430Z,0.60
2022-08-07T04:45:22.802Z,0.60
2022-08-07T04:48:16.376Z,0.70
2022-08-07T04:51:03.340Z,0.90
2022-08-07T04:54:00.943Z,0.50
2022-08-07T04:58:12.233Z,1.07
2022-08-07T05:00:12.395Z,0.67
2022-08-07T05:02:34.165Z,0.50
2022-08-07T05:05:53.857Z,0.60
2022-08-07T05:08:59.850Z,0.70
2022-08-07T05:11:58.610Z,0.90
2022-08-07T05:14:55.861Z,0.90
2022-08-07T05:17:52.638Z,1.10
2022-08-07T05:20:17.178Z,0.80
2022-08-07T05:22:46.642Z,1.10
2022-08-07T05:25:25.590Z,1.10
2022-08-07T05:28:20.287Z,0.80
2022-08-07T05:30:54.697Z,1.40
2022-08-07T05:33:23.715Z,1.00
2022-08-07T05:35:53.534Z,0.87
2022-08-07T05:39:00.607Z,1.00
2022-08-07T05:41:14.092Z,1.17
2022-08-07T05:44:07.629Z,0.97
2022-08-07T05:46:34.937Z,1.13
2022-08-07T05:49:11.665Z,1.00
2022-08-07T05:51:46.377Z,1.03
2022-08-07T05:54:30.718Z,0.93
2022-08-07T05:57:02.647Z,1.50
2022-08-07T05:59:38.998Z,1.07
2022-08-07T06:02:29.292Z,1.30
2022-08-07T06:05:03.489Z,1.27
2022-08-07T06:08:09.079Z,1.13
2022-08-07T06:10:18.782Z,1.40
2022-08-07T06:12:47.376Z,1.33
2022-08-07T06:15:16.218Z,1.43
2022-08-07T06:17:50.708Z,1.20
2022-08-07T06:20:25.619Z,1.20
2022-08-07T06:23:25.003Z,2.17
2022-08-07T06:25:57.016Z,1.10
2022-08-07T06:28:27.542Z,1.20
2022-08-07T06:30:55.633Z,1.13
2022-08-07T06:33:24.312Z,1.20
2022-08-07T06:36:12.917Z,0.90
2022-08-07T06:38:38.218Z,1.53
2022-08-07T06:41:15.832Z,1.00
2022-08-07T06:44:01.390Z,1.17
2022-08-07T06:46:35.265Z,1.50
2022-08-07T06:49:04.395Z,1.10
2022-08-07T06:51:34.681Z,0.90
2022-08-07T06:55:30.027Z,1.10
2022-08-07T06:56:51.274Z,1.10
2022-08-07T07:00:13.312Z,1.30
2022-08-07T07:02:15.561Z,1.10
2022-08-07T07:05:02.773Z,1.00
2022-08-07T07:07:59.314Z,1.10
2022-08-07T07:10:27.030Z,1.10
2022-08-07T07:12:58.787Z,1.00
2022-08-07T07:15:32.688Z,1.27
2022-08-07T07:18:10.157Z,1.20
2022-08-07T07:20:41.598Z,1.30
2022-08-07T07:24:06.370Z,1.40
2022-08-07T07:26:35.008Z,1.50
2022-08-07T07:29:28.605Z,1.13
2022-08-07T07:31:48.046Z,1.10
2022-08-07T07:34:22.317Z,1.30
2022-08-07T07:37:05.499Z,1.20
2022-08-07T07:39:52.218Z,1.10
2022-08-07T07:42:32.546Z,1.10
2022-08-07T07:45:02.525Z,1.10
2022-08-07T07:47:30.527Z,1.10
2022-08-07T07:50:35.972Z,1.57
2022-08-07T07:53:20.511Z,1.40
2022-08-07T07:55:57.814Z,1.10
2022-08-07T07:58:37.012Z,1.20
2022-08-07T08:02:02.804Z,0.90
2022-08-07T08:04:09.797Z,1.30
2022-08-07T08:06:39.562Z,1.20
2022-08-07T08:09:08.227Z,1.30
2022-08-07T08:11:59.878Z,0.90
2022-08-07T08:14:26.438Z,1.20
2022-08-07T08:16:56.123Z,1.10
2022-08-07T08:20:17.366Z,1.00
2022-08-07T08:22:55.724Z,1.13
2022-08-07T08:25:49.385Z,0.90
2022-08-07T08:28:37.889Z,1.10
2022-08-07T08:31:16.274Z,0.90
2022-08-07T08:33:55.870Z,1.37
2022-08-07T08:36:30.630Z,1.30
2022-08-07T08:39:00.074Z,1.00
2022-08-07T08:41:59.022Z,1.60
2022-08-07T08:44:44.355Z,1.30
2022-08-07T08:47:25.220Z,1.30
2022-08-07T08:50:39.158Z,1.40
2022-08-07T08:53:14.858Z,1.10
2022-08-07T08:55:58.616Z,1.10
2022-08-07T08:58:50.526Z,1.40
2022-08-07T09:01:29.565Z,1.37
2022-08-07T09:04:15.022Z,1.30
2022-08-07T09:06:52.315Z,1.03
2022-08-07T09:10:00.179Z,1.50
2022-08-07T09:12:54.326Z,1.20
2022-08-07T09:16:25.928Z,1.20
2022-08-07T09:18:53.189Z,1.30
2022-08-07T09:22:09.849Z,1.23
2022-08-07T09:24:59.347Z,0.90
2022-08-07T09:27:59.425Z,1.30
2022-08-07T09:30:37.333Z,1.13
2022-08-07T09:33:40.797Z,1.00
2022-08-07T09:36:16.843Z,1.40
2022-08-07T09:38:50.237Z,1.17
2022-08-07T09:42:02.936Z,1.10
2022-08-07T09:47:59.450Z,1.10
2022-08-07T09:50:32.994Z,1.20
2022-08-07T09:53:09.698Z,1.10
2022-08-07T09:56:03.631Z,0.90
2022-08-07T09:59:18.838Z,1.10
2022-08-07T10:02:01.552Z,1.20
2022-08-07T10:04:53.078Z,1.20
2022-08-07T10:07:31.742Z,0.90
2022-08-07T10:11:00.215Z,1.10
2022-08-07T10:14:00.458Z,1.10
2022-08-07T10:16:47.381Z,1.10
2022-08-07T10:19:42.441Z,0.90
2022-08-07T10:22:15.489Z,1.23
2022-08-07T10:24:59.601Z,1.53
2022-08-07T10:27:46.659Z,1.07
2022-08-07T10:30:26.422Z,1.30
2022-08-07T10:34:05.601Z,1.00
2022-08-07T10:36:30.771Z,1.20
2022-08-07T10:39:16.037Z,0.90
2022-08-07T10:42:00.254Z,1.20
2022-08-07T10:44:54.655Z,0.80
2022-08-07T10:47:52.672Z,1.00
2022-08-07T10:50:31.420Z,1.00
2022-08-07T10:53:12.944Z,1.00
2022-08-07T10:56:03.227Z,0.90
2022-08-07T10:58:45.943Z,1.00
2022-08-07T11:01:35.734Z,1.03
2022-08-07T11:04:41.499Z,1.00
2022-08-07T11:07:58.320Z,1.00
2022-08-07T11:10:20.215Z,1.10
2022-08-07T11:13:02.246Z,1.10
2022-08-07T11:15:34.856Z,1.00
2022-08-07T11:18:05.194Z,1.07
2022-08-07T11:20:42.044Z,1.00
2022-08-07T11:23:50.451Z,1.00
2022-08-07T11:26:38.651Z,1.20
2022-08-07T11:29:42.612Z,0.90
2022-08-07T11:32:25.414Z,0.97
2022-08-07T11:34:58.736Z,1.30
2022-08-07T11:37:57.951Z,0.87
2022-08-07T11:40:49.831Z,0.93
2022-08-07T11:43:41.635Z,1.07
2022-08-07T11:46:40.689Z,0.87
2022-08-07T11:50:25.293Z,0.87
2022-08-07T11:52:37.711Z,1.00
2022-08-07T11:55:18.899Z,0.87
2022-08-07T11:58:16.217Z,0.80
2022-08-07T12:01:07.595Z,1.10
2022-08-07T12:03:53.180Z,0.63
2022-08-07T12:06:55.364Z,0.77
2022-08-07T12:09:46.779Z,0.55
2022-08-07T12:12:41.425Z,0.70
2022-08-07T12:15:46.158Z,0.90
2022-08-07T12:18:33.875Z,0.67
2022-08-07T12:21:55.183Z,0.90
2022-08-07T12:24:36.894Z,0.70
2022-08-07T12:27:27.887Z,0.80
2022-08-07T12:30:07.503Z,0.50
2022-08-07T12:32:55.720Z,0.60
2022-08-07T12:35:24.697Z,0.88
2022-08-07T12:38:11.721Z,0.70
2022-08-07T12:40:48.894Z,0.73
2022-08-07T12:44:01.966Z,0.47
2022-08-07T12:46:40.495Z,0.50
2022-08-07T12:49:44.812Z,0.60
2022-08-07T12:52:29.431Z,0.40
2022-08-07T12:55:22.283Z,0.50
2022-08-07T12:58:10.040Z,0.60
2022-08-07T13:01:07.815Z,0.45
2022-08-07T13:04:09.832Z,0.50
2022-08-07T13:07:00.869Z,0.60
2022-08-07T13:10:29.189Z,0.80
2022-08-07T13:12:54.809Z,0.50
2022-08-07T13:15:37.087Z,0.60
2022-08-07T13:18:38.466Z,0.70
2022-08-07T13:21:35.061Z,0.70
2022-08-07T13:24:29.354Z,0.80
2022-08-07T13:27:10.489Z,0.40
2022-08-07T13:29:53.726Z,0.80
2022-08-07T13:32:41.005Z,0.40
2022-08-07T13:35:21.111Z,0.90
2022-08-07T13:38:06.854Z,0.68
2022-08-07T13:41:04.430Z,0.70
2022-08-07T13:43:41.325Z,1.00
2022-08-07T13:46:22.194Z,0.80
2022-08-07T13:48:59.297Z,0.70
2022-08-07T13:52:05.482Z,0.85
2022-08-07T13:54:23.790Z,0.60
2022-08-07T13:56:56.293Z,0.73
2022-08-07T13:59:32.492Z,0.90
2022-08-07T14:02:10.485Z,1.10
2022-08-07T14:05:00.289Z,0.70
2022-08-07T14:07:31.916Z,0.82
2022-08-07T14:10:17.590Z,0.60
2022-08-07T14:12:55.771Z,0.68
2022-08-07T14:15:42.600Z,0.73
2022-08-07T14:18:27.704Z,0.90
2022-08-07T14:21:20.953Z,0.90
2022-08-07T14:24:06.633Z,1.00
2022-08-07T14:26:50.416Z,0.80
2022-08-07T14:30:07.714Z,0.73
2022-08-07T14:32:10.305Z,1.10
2022-08-07T14:34:47.185Z,0.77
2022-08-07T14:37:17.400Z,0.60
2022-08-07T14:40:16.979Z,0.80
2022-08-07T14:43:55.128Z,0.80
2022-08-07T14:45:48.754Z,0.65
2022-08-07T14:48:19.953Z,0.50
2022-08-07T14:50:55.153Z,0.60
2022-08-07T14:54:03.801Z,0.70
2022-08-07T14:56:15.746Z,0.77
2022-08-07T14:59:02.114Z,0.60
2022-08-07T15:01:42.918Z,0.70
2022-08-07T15:04:19.117Z,0.70
2022-08-07T15:06:48.914Z,0.80
2022-08-07T15:12:25.950Z,0.60
2022-08-07T15:13:05.805Z,0.67
2022-08-07T15:15:09.203Z,0.50
2022-08-07T15:17:58.437Z,0.80
2022-08-07T15:20:55.624Z,0.70
2022-08-07T15:25:14.759Z,0.70
2022-08-07T15:32:02.778Z,0.70
2022-08-07T15:34:37.726Z,0.63
2022-08-07T15:37:27.739Z,0.82
2022-08-07T15:39:58.293Z,0.60
2022-08-07T15:42:46.447Z,0.80
2022-08-07T15:48:27.105Z,0.50
2022-08-07T15:51:08.455Z,0.60
2022-08-07T15:53:52.927Z,0.70
2022-08-07T15:56:24.697Z,0.50
2022-08-07T15:58:58.801Z,0.70
2022-08-07T16:01:40.363Z,0.70
2022-08-07T16:04:15.780Z,0.68
2022-08-07T16:06:42.416Z,0.73
2022-08-07T16:09:22.629Z,0.60
2022-08-07T16:12:02.228Z,0.70
2022-08-07T16:14:53.474Z,0.70
2022-08-07T16:18:00.945Z,0.70
2022-08-07T16:21:42.974Z,0.60
2022-08-07T16:24:09.141Z,0.73
2022-08-07T16:27:18.075Z,0.90
2022-08-07T16:30:30.781Z,0.70
2022-08-07T16:34:01.722Z,0.70
2022-08-07T16:36:31.146Z,0.80
2022-08-07T16:39:10.504Z,0.65
2022-08-07T16:42:21.729Z,0.75
2022-08-07T16:45:15.105Z,0.80
2022-08-07T16:48:27.728Z,0.77
2022-08-07T16:52:01.754Z,0.85
2022-08-07T16:54:33.123Z,0.90
2022-08-07T16:57:15.340Z,0.90
2022-08-07T17:00:15.290Z,1.65
2022-08-07T17:03:58.029Z,0.80
2022-08-07T17:06:45.858Z,0.70
2022-08-07T17:10:08.509Z,0.70
2022-08-07T17:12:35.956Z,0.80
2022-08-07T17:15:07.819Z,1.00
2022-08-07T17:17:47.378Z,0.95
2022-08-07T17:20:30.878Z,1.00
2022-08-07T17:23:08.756Z,0.85
2022-08-07T17:26:24.133Z,0.88
2022-08-07T17:28:58.171Z,0.73
2022-08-07T17:31:33.927Z,1.00
2022-08-07T17:34:35.027Z,0.85
2022-08-07T17:38:06.456Z,0.80
2022-08-07T17:40:19.017Z,0.73
2022-08-07T17:43:17.866Z,1.00
2022-08-07T17:45:55.055Z,0.87
2022-08-07T17:48:39.407Z,0.77
2022-08-07T17:51:21.657Z,0.90
2022-08-07T17:54:39.812Z,0.80
2022-08-07T17:57:20.951Z,0.97
2022-08-07T17:59:52.994Z,1.00
2022-08-07T18:02:32.885Z,1.00
2022-08-07T18:05:21.350Z,1.07
2022-08-07T18:08:03.299Z,1.03
2022-08-07T18:11:53.684Z,1.00
2022-08-07T18:13:41.458Z,1.40
2022-08-07T18:16:33.269Z,1.23
2022-08-07T18:21:07.143Z,0.80
2022-08-07T18:22:26.227Z,1.30
2022-08-07T18:25:18.989Z,0.70
2022-08-07T18:28:21.538Z,1.30
2022-08-07T18:31:05.757Z,1.00
2022-08-07T18:34:35.794Z,0.97
2022-08-07T18:38:55.110Z,0.83
2022-08-07T18:40:42.795Z,0.90
2022-08-07T18:43:42.855Z,1.00
2022-08-07T18:46:42.895Z,0.80
2022-08-07T18:50:30.244Z,1.33
2022-08-07T18:52:38.049Z,0.90
2022-08-07T18:55:41.687Z,1.60
2022-08-07T18:58:22.532Z,1.00
2022-08-07T19:02:17.171Z,1.00
2022-08-07T19:04:32.175Z,0.90
2022-08-07T19:07:14.611Z,1.47
2022-08-07T19:10:10.971Z,1.17
2022-08-07T19:13:10.306Z,1.10
2022-08-07T19:17:01.178Z,0.80
2022-08-07T19:19:07.682Z,1.13
2022-08-07T19:21:56.151Z,1.20
2022-08-07T19:24:34.442Z,1.13
2022-08-07T19:28:29.287Z,1.10
2022-08-07T19:31:00.765Z,1.17
2022-08-07T19:32:46.142Z,1.00
2022-08-07T19:35:25.748Z,1.30
2022-08-07T19:37:58.512Z,1.27
2022-08-07T19:40:31.874Z,1.27
2022-08-07T19:43:12.884Z,1.10
2022-08-07T19:46:09.272Z,1.30
2022-08-07T19:48:42.238Z,1.53
2022-08-07T19:51:50.920Z,1.27
2022-08-07T19:54:33.334Z,1.30
2022-08-07T19:58:00.369Z,1.50
2022-08-07T19:59:45.909Z,1.30
2022-08-07T20:02:19.846Z,1.20
2022-08-07T20:04:58.074Z,1.20
2022-08-07T20:07:46.451Z,1.00
2022-08-07T20:10:36.510Z,1.17
2022-08-07T20:13:22.446Z,1.37
2022-08-07T20:15:57.640Z,1.80
2022-08-07T20:18:33.766Z,1.40
2022-08-07T20:21:14.365Z,1.50
2022-08-07T20:23:53.857Z,1.30
2022-08-07T20:26:29.830Z,1.40
2022-08-07T20:29:17.101Z,1.30
2022-08-07T20:32:01.189Z,1.30
2022-08-07T20:34:49.444Z,1.20
2022-08-07T20:37:23.466Z,1.20
2022-08-07T20:40:02.179Z,1.27
2022-08-07T20:42:34.531Z,1.43
2022-08-07T20:46:24.387Z,1.43
2022-08-07T20:47:59.642Z,1.20
2022-08-07T20:50:30.358Z,1.30
2022-08-07T20:52:57.754Z,1.53
2022-08-07T20:55:27.346Z,1.60
2022-08-07T20:58:03.482Z,1.10
2022-08-07T21:00:50.630Z,1.40
2022-08-07T21:03:23.127Z,1.50
2022-08-07T21:06:21.809Z,1.30
2022-08-07T21:09:07.458Z,1.30
2022-08-07T21:11:50.434Z,1.30
2022-08-07T21:14:32.515Z,1.13
2022-08-07T21:18:02.308Z,1.47
2022-08-07T21:20:06.910Z,1.50
2022-08-07T21:22:44.735Z,1.43
2022-08-07T21:25:20.255Z,1.70
2022-08-07T21:28:01.761Z,1.83
2022-08-07T21:30:44.155Z,1.50
2022-08-07T21:33:24.578Z,1.70
2022-08-07T21:36:32.359Z,1.40
2022-08-07T21:39:45.292Z,1.60
2022-08-07T21:42:42.933Z,1.73
2022-08-07T21:46:07.643Z,1.73
2022-08-07T21:48:28.514Z,1.70
2022-08-07T21:51:32.212Z,1.50
2022-08-07T21:54:27.615Z,1.70
2022-08-07T21:57:39.676Z,1.70
2022-08-07T22:00:22.315Z,1.80
2022-08-07T22:02:59.162Z,2.00
2022-08-07T22:05:45.138Z,1.80
2022-08-07T22:08:18.407Z,1.70
2022-08-07T22:10:49.697Z,2.17
2022-08-07T22:13:24.413Z,1.93
2022-08-07T22:16:42.068Z,1.50
2022-08-07T22:19:12.077Z,1.83
2022-08-07T22:22:02.126Z,2.00
2022-08-07T22:24:38.037Z,2.20
2022-08-07T22:28:07.947Z,2.13
2022-08-07T22:30:26.464Z,1.87
2022-08-07T22:33:05.971Z,1.80
2022-08-07T22:35:51.039Z,2.10
2022-08-07T22:38:25.668Z,2.60
2022-08-07T22:41:07.629Z,2.00
2022-08-07T22:43:51.312Z,2.23
2022-08-07T22:47:03.426Z,2.10
2022-08-07T22:49:54.941Z,2.33
2022-08-07T22:52:36.674Z,2.20
2022-08-07T22:55:23.264Z,2.40
2022-08-07T22:58:21.637Z,2.10
2022-08-07T23:00:54.257Z,2.30
2022-08-07T23:03:58.220Z,2.40
2022-08-07T23:06:41.524Z,2.50
2022-08-07T23:10:05.257Z,2.33
2022-08-07T23:12:41.447Z,2.20
2022-08-07T23:16:06.832Z,2.40
2022-08-07T23:18:28.641Z,2.60
2022-08-07T23:21:26.414Z,2.70
2022-08-07T23:24:05.782Z,2.70
2022-08-07T23:26:55.071Z,2.50
2022-08-07T23:30:38.282Z,2.53
2022-08-07T23:34:36.090Z,2.70
2022-08-07T23:36:17.331Z,2.70
2022-08-07T23:39:01.864Z,2.90
2022-08-07T23:42:01.491Z,2.87
2022-08-07T23:44:40.302Z,2.57
2022-08-07T23:47:10.553Z,2.50
2022-08-07T23:50:02.519Z,2.60
2022-08-07T23:53:08.780Z,2.60
2022-08-07T23:55:54.049Z,2.70
2022-08-07T23:58:36.280Z,2.67
